AirNav   ATP
 
 759 users online  

C65 Plymouth Municipal Airport
Plymouth, Indiana, USA

GOING TO PLYMOUTH?


FAA INFORMATION EFFECTIVE 09 NOVEMBER 2017

Location

FAA Identifier: C65
Lat/Long: 41-21-54.4707N / 086-18-00.9268W
41-21.907845N / 086-18.015447W
41.3651307 / -86.3002574
(estimated)
Elevation: 800 ft. / 243.8 m (surveyed)
Variation: 05W (2020)
From city: 2 miles N of PLYMOUTH, IN
Time zone: UTC -5 (UTC -4 during Daylight Saving Time)
Zip code: 46563

Airport Operations

Airport use: Open to the public
Activation date: 12/1966
Control tower: no
ARTCC: CHICAGO CENTER
FSS: TERRE HAUTE FLIGHT SERVICE STATION
NOTAMs facility: HUF (NOTAM-D service available)
Attendance: MON-FRI 0800-1700, ALL SAT 0900-1600, ALL SUN 1000-1400
Wind indicator: lighted
Segmented circle: yes
Lights: ACTVT MIRL RY 10/28; REILS RY 10 & 28; PAPI RY 10, VASI RY 28 - CTAF.
Beacon: white-green (lighted land airport)
Operates sunset to sunrise.

Airport Communications

CTAF/UNICOM: 122.8
WX AWOS-3: 133.025 (574-935-3854)
SOUTH BEND APPROACH: 132.05 [1230-0400Z++]
SOUTH BEND DEPARTURE: 132.05 [1230-0400Z++]
WX AWOS-3 at OXI (17 nm W): 135.775 (574-772-2041)
WX AWOS-3 at RCR (19 nm S): 118.775 (574-223-3560)
  • APCH/DEP SERVICE PROVIDED BY CHICAGO ARTCC ON FREQS 135.9/317.6 (GOSHEN RCAG) WHEN SOUTH BEND APCH CTL CLSD.

Nearby radio navigation aids

VOR radial/distance  VOR name  Freq  Var
GSHr232/15.6GOSHEN VORTAC113.7000E
OXIr081/15.9KNOX VOR/DME115.6000E
GIJr178/24.2GIPPER VORTAC115.4000E
OLKr284/(36.9)WEBSTER LAKE VOR110.4003W

 
NDB name  Hdg/Dist  Freq  Var  ID
LA PORTE114/22.735603WIUL .. ..- .-..

Airport Services

Fuel available: 100LL JET-A
SELF SERVE AVBL 24 HRS.
Parking: hangars and tiedowns
Airframe service: NONE
Powerplant service: NONE

Runway Information

Runway 10/28

Dimensions: 4400 x 75 ft. / 1341 x 23 m
Surface: asphalt, in good condition
Weight bearing capacity: 
Single wheel: 25.0
Double wheel: 40.0
Runway edge lights: medium intensity
RUNWAY 10  RUNWAY 28
Latitude: 41-21.944167N41-21.871522N
Longitude: 086-18.493913W086-17.536978W
Elevation: 796.0 ft.800.0 ft.
Gradient: 0.2%0.2%
Traffic pattern: leftleft
Runway heading: 101 magnetic, 096 true281 magnetic, 276 true
Displaced threshold: no300 ft.
Markings: nonprecision, in good conditionnonprecision, in good condition
Visual slope indicator: 2-light PAPI on left (3.00 degrees glide path)4-box VASI on left (3.30 degrees glide path)
Runway end identifier lights: yesyes
Touchdown point: yes, no lightsyes, no lights
Obstructions: 56 ft. tree, 2000 ft. from runway, 183 ft. both sides of centerline, 32:1 slope to clear22 ft. road, 450 ft. from runway, 300 ft. right of centerline, 11:1 slope to clear
APCH RATIO 34:1 AT DSPLCD THLD.

Airport Ownership and Management from official FAA records

Ownership: Publicly-owned
Owner: PLYMOUTH BOAC
301 AIRPORT DRIVE
PLYMOUTH, IN 46563
Phone 574-935-5152
PHIL BOCKMAN - BOARD PRESIDENT
Manager: DAVE LATTIMER
301 AIRPORT DRIVE
PLYMOUTH, IN 46563
Phone 574-935-5152

Airport Operational Statistics

Aircraft based on the field: 18
Single engine airplanes: 16
Multi engine airplanes: 1
Helicopters: 1
    
Aircraft operations: avg 23/day *
54% local general aviation
26% transient general aviation
20% air taxi
* for 12-month period ending 31 December 2015

Additional Remarks

BIRDS ON & INVOF ARPT.
SNOW REMOVAL OPS DURING WINTER MONTHS; EQUIP OPERATORS WILL MONITOR CTAF WHEN TWR IS CLSD.

Instrument Procedures

NOTE: All procedures below are presented as PDF files. If you need a reader for these files, you should download the free Adobe Reader.

NOT FOR NAVIGATION. Please procure official charts for flight.
FAA instrument procedures published for use between 9 November 2017 at 0901Z and 7 December 2017 at 0900Z.

 
IAPs - Instrument Approach Procedures
RNAV (GPS) RWY 10 **CHANGED**   download (226KB)
RNAV (GPS) RWY 28 **CHANGED**   download (239KB)
VOR RWY 10 **CHANGED**   download (190KB)
VOR RWY 28 **CHANGED**   download (228KB)
NOTE: Special Take-Off Minimums/Departure Procedures apply   download (164KB)

Other nearby airports with instrument procedures:

KOXI - Starke County Airport (17 nm W)
C03 - Nappanee Municipal Airport (17 nm E)
KRCR - Fulton County Airport (19 nm S)
KSBN - South Bend International Airport (21 nm N)
KASW - Warsaw Municipal Airport (21 nm E)
 
Loc | Ops | Rwys | IFR | FBO | Links
Com | Nav | Svcs | Stats | Notes


 
Area around C65 (Plymouth Municipal Airport)
 
Road maps at: MapQuest Bing Google
 
Aerial photo
WARNING: Photo may not be current or correct
Aerial photo of C65 (Plymouth Municipal Airport)
Do you have a better or more recent aerial photo of Plymouth Municipal Airport that you would like to share? If so, please send us your photo.

 
Sectional chart

 
Airport distance calculator
Flying to Plymouth Municipal Airport? Find the distance to fly.

From to C65

Sunrise and sunset
Times for 21-Nov-2017
 Local
(UTC-5)
 Zulu
(UTC)
Morning civil twilight07:1212:12
Sunrise07:4212:42
Sunset17:2122:21
Evening civil twilight17:5122:51

Current date and time
Zulu (UTC)  22-Nov-2017 04:01:18
Local (UTC-5)  21-Nov-2017 23:01:18
 
METAR
KOXI 
17nm W 
220355Z AUTO 32013KT 10SM OVC037 00/M04 A3013 RMK AO1
KRCR 
19nm S 
220355Z AUTO 33008KT 10SM OVC035 01/M03 A3011 RMK AO2
KSBN 
20nm N 
220354Z 33011KT 10SM OVC033 01/M04 A3011 RMK AO2 SLP203 T00061044
KASW 
21nm E 
220355Z AUTO 31010G15KT 10SM OVC041 00/M04 A3009 RMK AO2
KPPO 
23nm NW 
220355Z AUTO 31007KT 10SM OVC033 00/M05 A3013 RMK AO2 T00001055
KEKM 
25nm NE 
220152Z 30008KT 10SM SCT034 OVC041 01/M04 A3006 RMK AO2 LAST
KGSH 
25nm NE 
220353Z AUTO 31014KT 10SM OVC037 01/M06 A3009 RMK AO2 SLP195 T00111056
KMGC 
31nm NW 
220355Z AUTO 31012G15KT 10SM OVC031 00/M05 A3014 RMK AO2
KVPZ 
32nm W 
220356Z AUTO 32009G17KT 10SM OVC033 01/M06 A3015 RMK AO2 SLP214 T00111061
TAF
KSBN 
20nm N 
211723Z 2118/2218 28015G25KT P6SM -SHRA OVC070 FM212200 30014KT P6SM OVC045 FM220300 31009KT P6SM BKN035 FM221100 32005KT P6SM BKN040
NOTAMs
Click for the latest NOTAMs
NOTAMs are issued by the DoD/FAA and will open in a separate window not controlled by AirNav.

 

 
 

Would you like to see your business listed on this page?

 If your business provides an interesting product or service to pilots, flight crews, aircraft, or users of the Plymouth Municipal Airport, you should consider listing it here.  To start the listing process, click on the button below
 
Add a business
 

Other Pages about Plymouth Municipal Airport

www.plymouthin.com/...
Page from the Michigan Airport Directory (PDF)
 
Update a link
 
Copyright © AirNav, LLC. All rights reserved. Privacy Policy  Contact